sensor_id;sensor_type;location;lat;lon;timestamp;temperature;humidity
68977;SHT31;56029;52.568;13.588;2023-09-18T00:02:02;16.95;92.79
68977;SHT31;56029;52.568;13.588;2023-09-18T00:04:28;16.96;92.63
68977;SHT31;56029;52.568;13.588;2023-09-18T00:06:53;16.92;92.61
68977;SHT31;56029;52.568;13.588;2023-09-18T00:09:19;16.94;92.66
68977;SHT31;56029;52.568;13.588;2023-09-18T00:11:44;16.92;92.69
68977;SHT31;56029;52.568;13.588;2023-09-18T00:14:10;16.89;92.84
68977;SHT31;56029;52.568;13.588;2023-09-18T00:16:35;16.85;92.82
68977;SHT31;56029;52.568;13.588;2023-09-18T00:19:01;16.87;92.82
68977;SHT31;56029;52.568;13.588;2023-09-18T00:21:26;16.87;92.78
68977;SHT31;56029;52.568;13.588;2023-09-18T00:23:52;16.85;92.89
68977;SHT31;56029;52.568;13.588;2023-09-18T00:26:17;16.82;92.95
68977;SHT31;56029;52.568;13.588;2023-09-18T00:28:43;16.81;92.90
68977;SHT31;56029;52.568;13.588;2023-09-18T00:31:09;16.74;93.25
68977;SHT31;56029;52.568;13.588;2023-09-18T00:33:34;16.75;93.11
68977;SHT31;56029;52.568;13.588;2023-09-18T00:36:00;16.72;93.48
68977;SHT31;56029;52.568;13.588;2023-09-18T00:38:25;16.72;93.36
68977;SHT31;56029;52.568;13.588;2023-09-18T00:40:51;16.70;93.44
68977;SHT31;56029;52.568;13.588;2023-09-18T00:43:16;16.71;93.44
68977;SHT31;56029;52.568;13.588;2023-09-18T00:45:44;16.71;93.42
68977;SHT31;56029;52.568;13.588;2023-09-18T00:48:11;16.70;93.26
68977;SHT31;56029;52.568;13.588;2023-09-18T00:50:37;16.68;93.38
68977;SHT31;56029;52.568;13.588;2023-09-18T00:53:03;16.67;93.49
68977;SHT31;56029;52.568;13.588;2023-09-18T00:55:30;16.65;93.53
68977;SHT31;56029;52.568;13.588;2023-09-18T00:57:56;16.65;93.68
68977;SHT31;56029;52.568;13.588;2023-09-18T01:00:22;16.64;93.66
68977;SHT31;56029;52.568;13.588;2023-09-18T01:02:48;16.64;93.51
68977;SHT31;56029;52.568;13.588;2023-09-18T01:05:14;16.64;93.68
68977;SHT31;56029;52.568;13.588;2023-09-18T01:07:39;16.65;93.68
68977;SHT31;56029;52.568;13.588;2023-09-18T01:10:05;16.60;93.75
68977;SHT31;56029;52.568;13.588;2023-09-18T01:12:37;16.61;93.64
68977;SHT31;56029;52.568;13.588;2023-09-18T01:15:14;16.60;93.73
68977;SHT31;56029;52.568;13.588;2023-09-18T01:17:40;16.56;93.88
68977;SHT31;56029;52.568;13.588;2023-09-18T01:20:09;16.51;93.84
68977;SHT31;56029;52.568;13.588;2023-09-18T01:22:35;16.53;93.79
68977;SHT31;56029;52.568;13.588;2023-09-18T01:25:00;16.54;93.85
68977;SHT31;56029;52.568;13.588;2023-09-18T01:27:26;16.51;93.99
68977;SHT31;56029;52.568;13.588;2023-09-18T01:29:52;16.53;94.04
68977;SHT31;56029;52.568;13.588;2023-09-18T01:32:17;16.49;93.85
68977;SHT31;56029;52.568;13.588;2023-09-18T01:34:46;16.47;94.11
68977;SHT31;56029;52.568;13.588;2023-09-18T01:37:14;16.46;94.06
68977;SHT31;56029;52.568;13.588;2023-09-18T01:39:41;16.43;94.12
68977;SHT31;56029;52.568;13.588;2023-09-18T01:42:07;16.40;94.32
68977;SHT31;56029;52.568;13.588;2023-09-18T01:44:33;16.36;94.32
68977;SHT31;56029;52.568;13.588;2023-09-18T01:47:02;16.31;94.44
68977;SHT31;56029;52.568;13.588;2023-09-18T01:49:29;16.33;94.32
68977;SHT31;56029;52.568;13.588;2023-09-18T01:51:56;16.31;94.46
68977;SHT31;56029;52.568;13.588;2023-09-18T01:54:21;16.27;94.49
68977;SHT31;56029;52.568;13.588;2023-09-18T01:56:46;16.26;94.52
68977;SHT31;56029;52.568;13.588;2023-09-18T01:59:12;16.23;94.53
68977;SHT31;56029;52.568;13.588;2023-09-18T02:01:38;16.21;94.72
68977;SHT31;56029;52.568;13.588;2023-09-18T02:04:04;16.17;94.61
68977;SHT31;56029;52.568;13.588;2023-09-18T02:06:30;16.14;94.68
68977;SHT31;56029;52.568;13.588;2023-09-18T02:08:55;16.09;94.85
68977;SHT31;56029;52.568;13.588;2023-09-18T02:11:21;16.10;95.10
68977;SHT31;56029;52.568;13.588;2023-09-18T02:13:46;16.08;95.09
68977;SHT31;56029;52.568;13.588;2023-09-18T02:16:12;16.08;94.94
68977;SHT31;56029;52.568;13.588;2023-09-18T02:18:37;16.05;94.99
68977;SHT31;56029;52.568;13.588;2023-09-18T02:21:03;16.06;95.15
68977;SHT31;56029;52.568;13.588;2023-09-18T02:23:28;16.06;95.07
68977;SHT31;56029;52.568;13.588;2023-09-18T02:25:58;16.02;95.15
68977;SHT31;56029;52.568;13.588;2023-09-18T02:28:23;15.96;95.12
68977;SHT31;56029;52.568;13.588;2023-09-18T02:30:49;15.96;95.06
68977;SHT31;56029;52.568;13.588;2023-09-18T02:33:15;15.91;95.22
68977;SHT31;56029;52.568;13.588;2023-09-18T02:35:41;15.89;95.35
68977;SHT31;56029;52.568;13.588;2023-09-18T02:38:06;15.85;95.48
68977;SHT31;56029;52.568;13.588;2023-09-18T02:40:32;15.82;95.45
68977;SHT31;56029;52.568;13.588;2023-09-18T02:42:57;15.81;95.55
68977;SHT31;56029;52.568;13.588;2023-09-18T02:45:23;15.82;95.58
68977;SHT31;56029;52.568;13.588;2023-09-18T02:47:48;15.79;95.55
68977;SHT31;56029;52.568;13.588;2023-09-18T02:50:14;15.79;95.58
68977;SHT31;56029;52.568;13.588;2023-09-18T02:52:39;15.78;95.55
68977;SHT31;56029;52.568;13.588;2023-09-18T02:55:05;15.75;95.67
68977;SHT31;56029;52.568;13.588;2023-09-18T02:57:30;15.75;95.66
68977;SHT31;56029;52.568;13.588;2023-09-18T02:59:56;15.68;95.70
68977;SHT31;56029;52.568;13.588;2023-09-18T03:02:21;15.66;95.78
68977;SHT31;56029;52.568;13.588;2023-09-18T03:04:47;15.66;95.78
68977;SHT31;56029;52.568;13.588;2023-09-18T03:07:13;15.63;95.92
68977;SHT31;56029;52.568;13.588;2023-09-18T03:09:38;15.63;95.78
68977;SHT31;56029;52.568;13.588;2023-09-18T03:12:04;15.61;95.77
68977;SHT31;56029;52.568;13.588;2023-09-18T03:14:30;15.55;95.69
68977;SHT31;56029;52.568;13.588;2023-09-18T03:16:55;15.55;95.75
68977;SHT31;56029;52.568;13.588;2023-09-18T03:19:21;15.54;95.97
68977;SHT31;56029;52.568;13.588;2023-09-18T03:21:46;15.51;96.26
68977;SHT31;56029;52.568;13.588;2023-09-18T03:24:12;15.50;96.08
68977;SHT31;56029;52.568;13.588;2023-09-18T03:26:37;15.51;96.24
68977;SHT31;56029;52.568;13.588;2023-09-18T03:29:03;15.52;96.32
68977;SHT31;56029;52.568;13.588;2023-09-18T03:31:28;15.54;96.22
68977;SHT31;56029;52.568;13.588;2023-09-18T03:33:54;15.51;96.33
68977;SHT31;56029;52.568;13.588;2023-09-18T03:36:21;15.52;96.30
68977;SHT31;56029;52.568;13.588;2023-09-18T03:38:47;15.57;96.35
68977;SHT31;56029;52.568;13.588;2023-09-18T03:41:13;15.55;96.42
68977;SHT31;56029;52.568;13.588;2023-09-18T03:43:38;15.54;96.41
68977;SHT31;56029;52.568;13.588;2023-09-18T03:46:05;15.54;96.40
68977;SHT31;56029;52.568;13.588;2023-09-18T03:48:30;15.54;96.48
68977;SHT31;56029;52.568;13.588;2023-09-18T03:50:56;15.52;96.44
68977;SHT31;56029;52.568;13.588;2023-09-18T03:53:21;15.51;96.41
68977;SHT31;56029;52.568;13.588;2023-09-18T03:55:48;15.50;96.46
68977;SHT31;56029;52.568;13.588;2023-09-18T03:58:13;15.48;96.60
68977;SHT31;56029;52.568;13.588;2023-09-18T04:00:39;15.45;96.67
68977;SHT31;56029;52.568;13.588;2023-09-18T04:03:04;15.45;96.75
68977;SHT31;56029;52.568;13.588;2023-09-18T04:05:30;15.45;96.46
68977;SHT31;56029;52.568;13.588;2023-09-18T04:07:55;15.44;96.64
68977;SHT31;56029;52.568;13.588;2023-09-18T04:10:21;15.41;96.75
68977;SHT31;56029;52.568;13.588;2023-09-18T04:12:47;15.41;96.83
68977;SHT31;56029;52.568;13.588;2023-09-18T04:15:15;15.38;96.68
68977;SHT31;56029;52.568;13.588;2023-09-18T04:17:41;15.38;96.69
68977;SHT31;56029;52.568;13.588;2023-09-18T04:20:06;15.37;96.65
68977;SHT31;56029;52.568;13.588;2023-09-18T04:22:32;15.34;96.44
68977;SHT31;56029;52.568;13.588;2023-09-18T04:24:57;15.33;96.72
68977;SHT31;56029;52.568;13.588;2023-09-18T04:27:23;15.30;96.52
68977;SHT31;56029;52.568;13.588;2023-09-18T04:29:48;15.27;96.54
68977;SHT31;56029;52.568;13.588;2023-09-18T04:32:14;15.26;96.48
68977;SHT31;56029;52.568;13.588;2023-09-18T04:34:40;15.26;96.39
68977;SHT31;56029;52.568;13.588;2023-09-18T04:37:05;15.26;96.60
68977;SHT31;56029;52.568;13.588;2023-09-18T04:39:31;15.21;96.49
68977;SHT31;56029;52.568;13.588;2023-09-18T04:41:56;15.19;96.85
68977;SHT31;56029;52.568;13.588;2023-09-18T04:44:22;15.19;96.79
68977;SHT31;56029;52.568;13.588;2023-09-18T04:46:47;15.17;96.85
68977;SHT31;56029;52.568;13.588;2023-09-18T04:49:13;15.14;96.77
68977;SHT31;56029;52.568;13.588;2023-09-18T04:51:38;15.16;96.97
68977;SHT31;56029;52.568;13.588;2023-09-18T04:54:04;15.19;96.92
68977;SHT31;56029;52.568;13.588;2023-09-18T04:56:29;15.17;96.41
68977;SHT31;56029;52.568;13.588;2023-09-18T04:58:55;15.16;96.63
68977;SHT31;56029;52.568;13.588;2023-09-18T05:01:20;15.14;96.73
68977;SHT31;56029;52.568;13.588;2023-09-18T05:03:46;15.13;96.38
68977;SHT31;56029;52.568;13.588;2023-09-18T05:06:12;15.16;96.47
68977;SHT31;56029;52.568;13.588;2023-09-18T05:08:37;15.16;96.68
68977;SHT31;56029;52.568;13.588;2023-09-18T05:11:03;15.19;97.09
68977;SHT31;56029;52.568;13.588;2023-09-18T05:13:29;15.21;96.73
68977;SHT31;56029;52.568;13.588;2023-09-18T05:15:54;15.26;96.98
68977;SHT31;56029;52.568;13.588;2023-09-18T05:18:20;15.31;96.87
68977;SHT31;56029;52.568;13.588;2023-09-18T05:20:45;15.38;96.98
68977;SHT31;56029;52.568;13.588;2023-09-18T05:23:11;15.47;96.89
68977;SHT31;56029;52.568;13.588;2023-09-18T05:25:36;15.51;96.69
68977;SHT31;56029;52.568;13.588;2023-09-18T05:28:02;15.58;96.62
68977;SHT31;56029;52.568;13.588;2023-09-18T05:30:33;15.63;96.73
68977;SHT31;56029;52.568;13.588;2023-09-18T05:32:58;15.72;96.65
68977;SHT31;56029;52.568;13.588;2023-09-18T05:35:24;15.79;96.50
68977;SHT31;56029;52.568;13.588;2023-09-18T05:37:50;15.92;96.61
68977;SHT31;56029;52.568;13.588;2023-09-18T05:40:16;16.00;96.25
68977;SHT31;56029;52.568;13.588;2023-09-18T05:42:42;16.17;96.20
68977;SHT31;56029;52.568;13.588;2023-09-18T05:45:09;16.24;95.89
68977;SHT31;56029;52.568;13.588;2023-09-18T05:47:35;16.39;95.74
68977;SHT31;56029;52.568;13.588;2023-09-18T05:50:01;16.47;95.62
68977;SHT31;56029;52.568;13.588;2023-09-18T05:52:27;16.61;95.48
68977;SHT31;56029;52.568;13.588;2023-09-18T05:54:52;16.71;95.16
68977;SHT31;56029;52.568;13.588;2023-09-18T05:57:18;16.82;94.90
68977;SHT31;56029;52.568;13.588;2023-09-18T05:59:43;16.96;94.55
68977;SHT31;56029;52.568;13.588;2023-09-18T06:02:09;17.11;94.49
68977;SHT31;56029;52.568;13.588;2023-09-18T06:04:34;17.26;94.06
68977;SHT31;56029;52.568;13.588;2023-09-18T06:07:00;17.37;93.66
68977;SHT31;56029;52.568;13.588;2023-09-18T06:09:25;17.53;93.09
68977;SHT31;56029;52.568;13.588;2023-09-18T06:11:51;17.67;92.96
68977;SHT31;56029;52.568;13.588;2023-09-18T06:14:16;17.74;92.48
68977;SHT31;56029;52.568;13.588;2023-09-18T06:16:42;17.87;92.06
68977;SHT31;56029;52.568;13.588;2023-09-18T06:19:07;17.94;91.89
68977;SHT31;56029;52.568;13.588;2023-09-18T06:21:33;18.07;91.69
68977;SHT31;56029;52.568;13.588;2023-09-18T06:23:58;18.15;91.27
68977;SHT31;56029;52.568;13.588;2023-09-18T06:26:24;18.26;90.63
68977;SHT31;56029;52.568;13.588;2023-09-18T06:28:50;18.31;90.60
68977;SHT31;56029;52.568;13.588;2023-09-18T06:31:15;18.41;90.41
68977;SHT31;56029;52.568;13.588;2023-09-18T06:33:41;18.45;90.53
68977;SHT31;56029;52.568;13.588;2023-09-18T06:36:06;18.55;90.25
68977;SHT31;56029;52.568;13.588;2023-09-18T06:38:32;18.56;90.24
68977;SHT31;56029;52.568;13.588;2023-09-18T06:40:57;18.65;89.84
68977;SHT31;56029;52.568;13.588;2023-09-18T06:43:23;18.70;89.77
68977;SHT31;56029;52.568;13.588;2023-09-18T06:45:49;18.74;89.59
68977;SHT31;56029;52.568;13.588;2023-09-18T06:48:14;18.82;89.72
68977;SHT31;56029;52.568;13.588;2023-09-18T06:50:40;18.93;89.23
68977;SHT31;56029;52.568;13.588;2023-09-18T06:53:05;19.02;89.13
68977;SHT31;56029;52.568;13.588;2023-09-18T06:55:31;19.08;88.74
68977;SHT31;56029;52.568;13.588;2023-09-18T06:57:56;19.20;88.42
68977;SHT31;56029;52.568;13.588;2023-09-18T07:00:22;19.32;87.95
68977;SHT31;56029;52.568;13.588;2023-09-18T07:02:48;19.48;87.57
68977;SHT31;56029;52.568;13.588;2023-09-18T07:05:13;19.57;87.63
68977;SHT31;56029;52.568;13.588;2023-09-18T07:07:39;19.86;86.82
68977;SHT31;56029;52.568;13.588;2023-09-18T07:10:04;20.09;86.28
68977;SHT31;56029;52.568;13.588;2023-09-18T07:12:30;20.29;85.58
68977;SHT31;56029;52.568;13.588;2023-09-18T07:14:55;20.44;85.08
68977;SHT31;56029;52.568;13.588;2023-09-18T07:17:21;20.64;84.68
68977;SHT31;56029;52.568;13.588;2023-09-18T07:19:47;20.69;84.01
68977;SHT31;56029;52.568;13.588;2023-09-18T07:22:12;20.85;83.86
68977;SHT31;56029;52.568;13.588;2023-09-18T07:24:38;20.88;83.66
68977;SHT31;56029;52.568;13.588;2023-09-18T07:27:03;21.00;83.44
68977;SHT31;56029;52.568;13.588;2023-09-18T07:29:29;21.09;83.10
68977;SHT31;56029;52.568;13.588;2023-09-18T07:31:54;21.15;82.94
68977;SHT31;56029;52.568;13.588;2023-09-18T07:34:20;21.26;82.99
68977;SHT31;56029;52.568;13.588;2023-09-18T07:36:45;21.40;82.58
68977;SHT31;56029;52.568;13.588;2023-09-18T07:39:11;21.57;81.43
68977;SHT31;56029;52.568;13.588;2023-09-18T07:41:37;21.64;81.34
68977;SHT31;56029;52.568;13.588;2023-09-18T07:44:02;21.73;80.48
68977;SHT31;56029;52.568;13.588;2023-09-18T07:46:28;21.75;81.31
68977;SHT31;56029;52.568;13.588;2023-09-18T07:48:54;21.91;80.29
68977;SHT31;56029;52.568;13.588;2023-09-18T07:51:19;22.01;80.28
68977;SHT31;56029;52.568;13.588;2023-09-18T07:53:45;22.04;80.05
68977;SHT31;56029;52.568;13.588;2023-09-18T07:56:11;22.11;79.82
68977;SHT31;56029;52.568;13.588;2023-09-18T07:58:37;22.18;79.69
68977;SHT31;56029;52.568;13.588;2023-09-18T08:01:03;22.29;79.55
68977;SHT31;56029;52.568;13.588;2023-09-18T08:03:28;22.35;78.94
68977;SHT31;56029;52.568;13.588;2023-09-18T08:05:54;22.33;79.22
68977;SHT31;56029;52.568;13.588;2023-09-18T08:08:21;22.36;79.35
68977;SHT31;56029;52.568;13.588;2023-09-18T08:10:47;22.36;78.61
68977;SHT31;56029;52.568;13.588;2023-09-18T08:13:12;22.46;79.16
68977;SHT31;56029;52.568;13.588;2023-09-18T08:15:38;22.59;78.50
68977;SHT31;56029;52.568;13.588;2023-09-18T08:18:04;22.72;78.28
68977;SHT31;56029;52.568;13.588;2023-09-18T08:20:30;22.79;78.18
68977;SHT31;56029;52.568;13.588;2023-09-18T08:22:55;22.91;78.11
68977;SHT31;56029;52.568;13.588;2023-09-18T08:25:21;22.97;78.00
68977;SHT31;56029;52.568;13.588;2023-09-18T08:27:46;23.07;77.90
68977;SHT31;56029;52.568;13.588;2023-09-18T08:30:13;23.20;77.22
68977;SHT31;56029;52.568;13.588;2023-09-18T08:32:39;23.25;76.72
68977;SHT31;56029;52.568;13.588;2023-09-18T08:35:06;23.28;76.49
68977;SHT31;56029;52.568;13.588;2023-09-18T08:37:31;23.37;76.77
68977;SHT31;56029;52.568;13.588;2023-09-18T08:39:57;23.52;76.69
68977;SHT31;56029;52.568;13.588;2023-09-18T08:42:23;23.59;76.23
68977;SHT31;56029;52.568;13.588;2023-09-18T08:44:51;23.69;75.96
68977;SHT31;56029;52.568;13.588;2023-09-18T08:47:18;23.80;75.14
68977;SHT31;56029;52.568;13.588;2023-09-18T08:49:45;23.95;74.68
68977;SHT31;56029;52.568;13.588;2023-09-18T08:52:11;24.00;74.63
68977;SHT31;56029;52.568;13.588;2023-09-18T08:54:38;24.10;74.31
68977;SHT31;56029;52.568;13.588;2023-09-18T08:57:03;24.19;73.86
68977;SHT31;56029;52.568;13.588;2023-09-18T08:59:30;24.38;73.92
68977;SHT31;56029;52.568;13.588;2023-09-18T09:01:56;24.48;73.42
68977;SHT31;56029;52.568;13.588;2023-09-18T09:04:21;24.61;72.62
68977;SHT31;56029;52.568;13.588;2023-09-18T09:06:48;24.74;72.19
68977;SHT31;56029;52.568;13.588;2023-09-18T09:09:14;24.84;71.28
68977;SHT31;56029;52.568;13.588;2023-09-18T09:11:39;24.95;72.09
68977;SHT31;56029;52.568;13.588;2023-09-18T09:14:12;25.01;71.09
68977;SHT31;56029;52.568;13.588;2023-09-18T09:16:39;25.16;70.71
68977;SHT31;56029;52.568;13.588;2023-09-18T09:19:04;25.26;70.65
68977;SHT31;56029;52.568;13.588;2023-09-18T09:21:40;25.36;70.90
68977;SHT31;56029;52.568;13.588;2023-09-18T09:24:06;25.51;70.51
68977;SHT31;56029;52.568;13.588;2023-09-18T09:26:31;25.62;70.18
68977;SHT31;56029;52.568;13.588;2023-09-18T09:29:20;25.73;68.98
68977;SHT31;56029;52.568;13.588;2023-09-18T09:31:45;25.85;68.96
68977;SHT31;56029;52.568;13.588;2023-09-18T09:34:11;25.94;68.01
68977;SHT31;56029;52.568;13.588;2023-09-18T09:36:52;26.02;68.38
68977;SHT31;56029;52.568;13.588;2023-09-18T09:39:18;26.12;67.70
68977;SHT31;56029;52.568;13.588;2023-09-18T09:41:45;26.15;67.14
68977;SHT31;56029;52.568;13.588;2023-09-18T09:44:11;26.17;68.16
68977;SHT31;56029;52.568;13.588;2023-09-18T09:46:45;26.20;67.90
68977;SHT31;56029;52.568;13.588;2023-09-18T09:49:11;26.31;65.58
68977;SHT31;56029;52.568;13.588;2023-09-18T09:51:36;26.41;65.97
68977;SHT31;56029;52.568;13.588;2023-09-18T09:54:02;26.53;65.83
68977;SHT31;56029;52.568;13.588;2023-09-18T09:56:41;26.53;66.16
68977;SHT31;56029;52.568;13.588;2023-09-18T09:59:08;26.63;66.43
68977;SHT31;56029;52.568;13.588;2023-09-18T10:01:33;26.64;65.99
68977;SHT31;56029;52.568;13.588;2023-09-18T10:04:01;26.70;65.88
68977;SHT31;56029;52.568;13.588;2023-09-18T10:06:30;26.70;65.15
68977;SHT31;56029;52.568;13.588;2023-09-18T10:08:59;26.64;64.61
68977;SHT31;56029;52.568;13.588;2023-09-18T10:11:26;26.63;64.92
68977;SHT31;56029;52.568;13.588;2023-09-18T10:13:55;26.66;65.27
68977;SHT31;56029;52.568;13.588;2023-09-18T10:16:23;26.62;64.85
68977;SHT31;56029;52.568;13.588;2023-09-18T10:18:57;26.75;64.65
68977;SHT31;56029;52.568;13.588;2023-09-18T10:21:26;26.82;64.12
68977;SHT31;56029;52.568;13.588;2023-09-18T10:23:59;26.96;63.71
68977;SHT31;56029;52.568;13.588;2023-09-18T10:26:29;27.03;63.46
68977;SHT31;56029;52.568;13.588;2023-09-18T10:28:56;27.06;63.40
68977;SHT31;56029;52.568;13.588;2023-09-18T10:31:23;27.04;63.04
68977;SHT31;56029;52.568;13.588;2023-09-18T10:33:49;27.14;63.31
68977;SHT31;56029;52.568;13.588;2023-09-18T10:36:16;27.15;63.65
68977;SHT31;56029;52.568;13.588;2023-09-18T10:38:41;27.12;63.39
68977;SHT31;56029;52.568;13.588;2023-09-18T10:41:08;27.04;63.20
68977;SHT31;56029;52.568;13.588;2023-09-18T10:43:34;27.01;64.49
68977;SHT31;56029;52.568;13.588;2023-09-18T10:46:00;27.01;63.27
68977;SHT31;56029;52.568;13.588;2023-09-18T10:48:26;27.01;63.50
68977;SHT31;56029;52.568;13.588;2023-09-18T10:50:52;27.14;63.84
68977;SHT31;56029;52.568;13.588;2023-09-18T10:53:18;27.18;64.67
68977;SHT31;56029;52.568;13.588;2023-09-18T10:55:44;27.14;64.47
68977;SHT31;56029;52.568;13.588;2023-09-18T10:58:10;27.11;65.60
68977;SHT31;56029;52.568;13.588;2023-09-18T11:00:35;27.11;65.25
68977;SHT31;56029;52.568;13.588;2023-09-18T11:03:11;26.97;65.03
68977;SHT31;56029;52.568;13.588;2023-09-18T11:05:37;26.90;64.64
68977;SHT31;56029;52.568;13.588;2023-09-18T11:08:33;26.80;65.86
68977;SHT31;56029;52.568;13.588;2023-09-18T11:11:01;26.90;65.50
68977;SHT31;56029;52.568;13.588;2023-09-18T11:13:33;26.87;65.44
68977;SHT31;56029;52.568;13.588;2023-09-18T11:16:13;26.93;65.25
68977;SHT31;56029;52.568;13.588;2023-09-18T11:18:39;26.94;64.80
68977;SHT31;56029;52.568;13.588;2023-09-18T11:21:11;26.87;64.23
68977;SHT31;56029;52.568;13.588;2023-09-18T11:23:39;26.91;64.92
68977;SHT31;56029;52.568;13.588;2023-09-18T11:26:09;26.69;65.87
68977;SHT31;56029;52.568;13.588;2023-09-18T11:28:35;26.82;65.07
68977;SHT31;56029;52.568;13.588;2023-09-18T11:31:00;26.76;65.34
68977;SHT31;56029;52.568;13.588;2023-09-18T11:33:44;26.72;65.64
68977;SHT31;56029;52.568;13.588;2023-09-18T11:36:14;26.70;65.07
68977;SHT31;56029;52.568;13.588;2023-09-18T11:38:56;26.73;65.09
68977;SHT31;56029;52.568;13.588;2023-09-18T11:41:27;26.78;65.84
68977;SHT31;56029;52.568;13.588;2023-09-18T11:46:54;26.63;65.44
68977;SHT31;56029;52.568;13.588;2023-09-18T11:49:20;26.73;64.98
68977;SHT31;56029;52.568;13.588;2023-09-18T11:51:46;26.69;65.94
68977;SHT31;56029;52.568;13.588;2023-09-18T11:54:12;26.57;66.05
68977;SHT31;56029;52.568;13.588;2023-09-18T11:56:39;26.63;67.19
68977;SHT31;56029;52.568;13.588;2023-09-18T11:59:05;26.52;67.87
68977;SHT31;56029;52.568;13.588;2023-09-18T12:01:31;26.41;67.27
68977;SHT31;56029;52.568;13.588;2023-09-18T12:04:03;26.33;66.41
68977;SHT31;56029;52.568;13.588;2023-09-18T12:06:29;26.31;67.19
68977;SHT31;56029;52.568;13.588;2023-09-18T12:08:54;26.26;67.55
68977;SHT31;56029;52.568;13.588;2023-09-18T12:11:20;26.26;67.19
68977;SHT31;56029;52.568;13.588;2023-09-18T12:13:47;26.32;67.53
68977;SHT31;56029;52.568;13.588;2023-09-18T12:16:12;26.32;67.88
68977;SHT31;56029;52.568;13.588;2023-09-18T12:18:45;26.39;67.27
68977;SHT31;56029;52.568;13.588;2023-09-18T12:21:10;26.48;67.21
68977;SHT31;56029;52.568;13.588;2023-09-18T12:23:40;26.46;69.34
68977;SHT31;56029;52.568;13.588;2023-09-18T12:26:06;26.56;67.27
68977;SHT31;56029;52.568;13.588;2023-09-18T12:28:33;26.63;66.96
68977;SHT31;56029;52.568;13.588;2023-09-18T12:30:58;26.66;67.55
68977;SHT31;56029;52.568;13.588;2023-09-18T12:33:24;26.66;67.36
68977;SHT31;56029;52.568;13.588;2023-09-18T12:35:50;26.56;67.55
68977;SHT31;56029;52.568;13.588;2023-09-18T12:38:17;26.73;67.42
68977;SHT31;56029;52.568;13.588;2023-09-18T12:40:43;26.83;67.58
68977;SHT31;56029;52.568;13.588;2023-09-18T12:43:08;26.93;67.55
68977;SHT31;56029;52.568;13.588;2023-09-18T12:45:34;26.86;68.04
68977;SHT31;56029;52.568;13.588;2023-09-18T12:48:01;26.83;68.13
68977;SHT31;56029;52.568;13.588;2023-09-18T12:50:26;26.68;67.90
68977;SHT31;56029;52.568;13.588;2023-09-18T12:52:52;26.56;68.61
68977;SHT31;56029;52.568;13.588;2023-09-18T12:55:25;26.55;68.30
68977;SHT31;56029;52.568;13.588;2023-09-18T12:57:51;26.52;68.41
68977;SHT31;56029;52.568;13.588;2023-09-18T13:00:18;26.41;67.70
68977;SHT31;56029;52.568;13.588;2023-09-18T13:02:44;26.39;68.60
68977;SHT31;56029;52.568;13.588;2023-09-18T13:05:10;26.36;68.21
68977;SHT31;56029;52.568;13.588;2023-09-18T13:07:44;26.33;67.93
68977;SHT31;56029;52.568;13.588;2023-09-18T13:10:09;26.31;68.99
68977;SHT31;56029;52.568;13.588;2023-09-18T13:12:51;26.12;69.52
68977;SHT31;56029;52.568;13.588;2023-09-18T13:15:27;25.90;69.40
68977;SHT31;56029;52.568;13.588;2023-09-18T13:17:53;25.88;69.44
68977;SHT31;56029;52.568;13.588;2023-09-18T13:20:23;25.81;69.71
68977;SHT31;56029;52.568;13.588;2023-09-18T13:22:51;25.67;69.79
68977;SHT31;56029;52.568;13.588;2023-09-18T13:25:21;25.56;69.85
68977;SHT31;56029;52.568;13.588;2023-09-18T13:27:47;25.43;70.44
68977;SHT31;56029;52.568;13.588;2023-09-18T13:30:13;25.51;69.90
68977;SHT31;56029;52.568;13.588;2023-09-18T13:32:39;25.50;71.59
68977;SHT31;56029;52.568;13.588;2023-09-18T13:35:04;25.51;70.62
68977;SHT31;56029;52.568;13.588;2023-09-18T13:37:30;25.44;69.30
68977;SHT31;56029;52.568;13.588;2023-09-18T13:39:56;25.46;69.75
68977;SHT31;56029;52.568;13.588;2023-09-18T13:42:22;25.43;70.91
68977;SHT31;56029;52.568;13.588;2023-09-18T13:44:47;25.39;69.81
68977;SHT31;56029;52.568;13.588;2023-09-18T13:47:13;25.36;70.43
68977;SHT31;56029;52.568;13.588;2023-09-18T13:49:38;25.33;71.20
68977;SHT31;56029;52.568;13.588;2023-09-18T13:52:04;25.30;71.25
68977;SHT31;56029;52.568;13.588;2023-09-18T13:54:29;25.23;71.24
68977;SHT31;56029;52.568;13.588;2023-09-18T13:56:55;25.12;72.77
68977;SHT31;56029;52.568;13.588;2023-09-18T13:59:20;25.09;72.72
68977;SHT31;56029;52.568;13.588;2023-09-18T14:01:46;25.04;72.95
68977;SHT31;56029;52.568;13.588;2023-09-18T14:04:11;24.99;74.36
68977;SHT31;56029;52.568;13.588;2023-09-18T14:06:37;24.86;75.81
68977;SHT31;56029;52.568;13.588;2023-09-18T14:09:03;24.88;76.26
68977;SHT31;56029;52.568;13.588;2023-09-18T14:11:28;24.85;77.30
68977;SHT31;56029;52.568;13.588;2023-09-18T14:13:54;24.91;76.52
68977;SHT31;56029;52.568;13.588;2023-09-18T14:16:19;24.92;78.31
68977;SHT31;56029;52.568;13.588;2023-09-18T14:18:45;24.99;76.92
68977;SHT31;56029;52.568;13.588;2023-09-18T14:21:10;25.02;76.80
68977;SHT31;56029;52.568;13.588;2023-09-18T14:23:36;25.05;76.73
68977;SHT31;56029;52.568;13.588;2023-09-18T14:26:01;25.08;76.53
68977;SHT31;56029;52.568;13.588;2023-09-18T14:28:27;25.09;76.66
68977;SHT31;56029;52.568;13.588;2023-09-18T14:30:52;25.13;76.36
68977;SHT31;56029;52.568;13.588;2023-09-18T14:33:18;25.13;75.75
68977;SHT31;56029;52.568;13.588;2023-09-18T14:35:44;25.15;75.93
68977;SHT31;56029;52.568;13.588;2023-09-18T14:38:09;25.09;74.80
68977;SHT31;56029;52.568;13.588;2023-09-18T14:40:35;25.08;74.84
68977;SHT31;56029;52.568;13.588;2023-09-18T14:43:00;25.04;75.43
68977;SHT31;56029;52.568;13.588;2023-09-18T14:45:26;24.96;75.29
68977;SHT31;56029;52.568;13.588;2023-09-18T14:47:51;24.98;75.75
68977;SHT31;56029;52.568;13.588;2023-09-18T14:50:17;24.91;75.82
68977;SHT31;56029;52.568;13.588;2023-09-18T14:52:42;24.82;75.39
68977;SHT31;56029;52.568;13.588;2023-09-18T14:55:08;24.77;74.71
68977;SHT31;56029;52.568;13.588;2023-09-18T14:57:33;24.71;75.78
68977;SHT31;56029;52.568;13.588;2023-09-18T14:59:59;24.58;75.38
68977;SHT31;56029;52.568;13.588;2023-09-18T15:02:24;24.47;75.93
68977;SHT31;56029;52.568;13.588;2023-09-18T15:04:50;24.50;75.35
68977;SHT31;56029;52.568;13.588;2023-09-18T15:07:15;24.48;75.16
68977;SHT31;56029;52.568;13.588;2023-09-18T15:09:41;24.44;75.00
68977;SHT31;56029;52.568;13.588;2023-09-18T15:12:07;24.47;74.78
68977;SHT31;56029;52.568;13.588;2023-09-18T15:14:34;24.50;75.15